Bookmark and Share
Track history (hours):
 

Ted J Eymard Sr.

More information available from US FCC via Universal Licensing System and Coast Guard Vessel Documentation Center.

Last reported at 2013-Jan-30 17:14 UTC. Time now 2014-Apr-16 10:30 UTC.
Position N 29°50' W 090°04'.
Warning: this ship's position is years out of date!

Length 19 m; draft 2.9 m.

Type: Towing. MMSI: 367446720.

NotesDate/timePositionNaut miles runAvg speedWind from/ knotsBaromVisibWave heightAir tempDewpointWater temp
2013-Jan-30 17:14N 29°50' W 090°04'0 0.0
2013-Jan-30 13:28N 29°50' W 090°04'0 0.0
2013-Jan-30 12:33N 29°50' W 090°04'0 0.0
2013-Jan-30 11:35N 29°50' W 090°04'0 0.0
2013-Jan-30 10:33N 29°50' W 090°04'0 0.0
2013-Jan-30 09:34N 29°50' W 090°04'0 0.0
2013-Jan-30 08:33N 29°50' W 090°04'0 0.0
2013-Jan-30 07:33N 29°50' W 090°04'0 0.0
2013-Jan-30 06:33N 29°50' W 090°04'0 0.0
2013-Jan-30 05:36N 29°50' W 090°04'0 0.0
2013-Jan-30 04:33N 29°50' W 090°04'0 0.0
2013-Jan-30 03:29N 29°50' W 090°04'0 0.0
2013-Jan-30 02:33N 29°50' W 090°04'0 0.0
2013-Jan-30 01:33N 29°50' W 090°04'0 0.0
2013-Jan-30 00:33N 29°50' W 090°04'5 4.7
2013-Jan-29 23:33N 29°55' W 090°05'0 0.2
2013-Jan-29 22:33N 29°55' W 090°05'5 4.8
2013-Jan-29 21:34N 29°57' W 090°10'3 2.8
2013-Jan-29 20:33N 29°56' W 090°13'4 3.7
2013-Jan-29 19:33N 29°58' W 090°16'9 8.5
2013-Jan-29 18:27N 29°60' W 090°27'6 6.0
2013-Jan-29 17:31N 30°03' W 090°32'0 0.0
2013-Jan-29 16:33N 30°03' W 090°32'0 0.0
2013-Jan-29 15:33N 30°03' W 090°32'2 2.3
2013-Jan-29 14:33N 30°03' W 090°30'4 3.7
2013-Jan-29 13:33N 29°60' W 090°27'4 3.7
2013-Jan-29 12:30N 29°58' W 090°24'2 2.2
2013-Jan-29 11:45N 29°56' W 090°22'6 5.4
2013-Jan-29 10:33N 29°58' W 090°15'5 4.5
2013-Jan-29 09:33N 29°57' W 090°10'4 4.5
2013-Jan-29 08:33N 29°55' W 090°06'2 1.8
2013-Jan-29 07:33N 29°55' W 090°04'1 1.4
2013-Jan-29 06:33N 29°55' W 090°05'0 0.3
2013-Jan-29 05:36N 29°54' W 090°05'0 0.1
2013-Jan-29 04:33N 29°54' W 090°05'3 3.5
2013-Jan-29 03:33N 29°51' W 090°04'0 0.4
2013-Jan-29 02:33N 29°51' W 090°04'1 0.6
2013-Jan-29 01:33N 29°50' W 090°04'0 0.0
2013-Jan-29 00:33N 29°50' W 090°04'0 0.0
2013-Jan-28 23:33N 29°50' W 090°04'0 0.0
2013-Jan-28 22:33N 29°50' W 090°04'0 0.0
2013-Jan-28 21:33N 29°50' W 090°04'0 0.0
2013-Jan-28 20:33N 29°50' W 090°04'0 0.0
2013-Jan-28 19:33N 29°50' W 090°04'0 0.0
2013-Jan-28 18:33N 29°50' W 090°04'0 0.0
2013-Jan-28 17:33N 29°50' W 090°04'0 0.0
2013-Jan-28 16:33N 29°50' W 090°04'0 0.0
2013-Jan-28 15:33N 29°50' W 090°04'0 0.0
2013-Jan-28 14:32N 29°50' W 090°04'0 0.0
2013-Jan-28 13:33N 29°50' W 090°04'0 0.0
2013-Jan-28 12:33N 29°50' W 090°04'0 0.0
2013-Jan-28 11:37N 29°50' W 090°04'0 0.0
2013-Jan-28 10:33N 29°50' W 090°04'0 0.0
2013-Jan-28 09:33N 29°50' W 090°04'0 0.0
2013-Jan-28 08:33N 29°50' W 090°04'0 0.0
2013-Jan-28 07:33N 29°50' W 090°04'0 0.0
2013-Jan-28 06:33N 29°50' W 090°04'0 0.0
2013-Jan-28 05:36N 29°50' W 090°04'0 0.0
2013-Jan-28 04:33N 29°50' W 090°04'0 0.0
2013-Jan-28 03:33N 29°50' W 090°04'0 0.0
2013-Jan-28 02:31N 29°50' W 090°04'0 0.0
2013-Jan-28 01:33N 29°50' W 090°04'0 0.0
2013-Jan-28 00:33N 29°50' W 090°04'0 0.0
2013-Jan-27 23:33N 29°50' W 090°04'0 0.0
2013-Jan-27 22:33N 29°50' W 090°04'0 0.0
2013-Jan-27 21:33N 29°50' W 090°04'0 0.0
2013-Jan-27 20:33N 29°50' W 090°04'0 0.0
2013-Jan-27 19:33N 29°50' W 090°04'0 0.0
2013-Jan-27 18:32N 29°50' W 090°04'0 0.0
2013-Jan-27 17:29N 29°50' W 090°04'0 0.0
2013-Jan-27 16:33N 29°50' W 090°04'  
2013-Jan-21 20:33N 29°50' W 090°04'0 0.0
2013-Jan-21 19:33N 29°50' W 090°04'0 0.0
2013-Jan-21 18:33N 29°50' W 090°04'0 0.0
2013-Jan-21 17:30N 29°50' W 090°04'  

Dump ship's entire track history

sailing weather and tide predictions

Ted J Eymard Sr. — WDF4000 — position and weather